createdAt,value
2019-02-26T00:00:32.758Z,6.00
2019-02-26T00:03:02.405Z,6.00
2019-02-26T00:05:30.718Z,6.00
2019-02-26T00:08:00.167Z,6.00
2019-02-26T00:10:29.002Z,5.90
2019-02-26T00:12:57.111Z,5.90
2019-02-26T00:15:24.388Z,5.90
2019-02-26T00:17:53.007Z,5.80
2019-02-26T00:20:20.278Z,5.80
2019-02-26T00:22:47.767Z,5.80
2019-02-26T00:25:16.158Z,5.70
2019-02-26T00:27:43.852Z,5.70
2019-02-26T00:30:11.829Z,5.60
2019-02-26T00:32:40.557Z,5.60
2019-02-26T00:35:09.314Z,5.60
2019-02-26T00:37:36.566Z,5.50
2019-02-26T00:40:04.302Z,5.50
2019-02-26T00:42:33.364Z,5.40
2019-02-26T00:45:02.883Z,5.40
2019-02-26T00:47:33.889Z,5.40
2019-02-26T00:49:59.309Z,5.30
2019-02-26T00:52:28.165Z,5.30
2019-02-26T00:54:57.606Z,5.30
2019-02-26T00:57:27.152Z,5.30
2019-02-26T00:59:53.457Z,5.30
2019-02-26T01:02:20.559Z,5.20
2019-02-26T01:04:48.644Z,5.20
2019-02-26T01:07:19.007Z,5.20
2019-02-26T01:09:47.877Z,5.20
2019-02-26T01:12:18.316Z,5.10
2019-02-26T01:14:50.310Z,5.20
2019-02-26T01:17:18.841Z,5.10
2019-02-26T01:19:46.430Z,5.10
2019-02-26T01:22:13.596Z,5.00
2019-02-26T01:24:41.007Z,5.00
2019-02-26T01:27:08.385Z,4.90
2019-02-26T01:29:35.843Z,4.90
2019-02-26T01:32:03.453Z,4.80
2019-02-26T01:34:30.900Z,4.80
2019-02-26T01:37:00.826Z,4.90
2019-02-26T01:39:28.254Z,4.90
2019-02-26T01:41:56.356Z,4.90
2019-02-26T01:44:28.081Z,4.90
2019-02-26T01:46:55.541Z,4.90
2019-02-26T01:49:25.870Z,4.90
2019-02-26T01:51:53.949Z,4.80
2019-02-26T01:54:21.144Z,4.90
2019-02-26T01:56:48.298Z,4.90
2019-02-26T01:59:18.297Z,4.80
2019-02-26T02:01:46.467Z,4.80
2019-02-26T02:04:14.964Z,4.80
2019-02-26T02:06:42.938Z,4.80
2019-02-26T02:09:13.253Z,4.80
2019-02-26T02:11:40.715Z,4.80
2019-02-26T02:14:10.248Z,4.70
2019-02-26T02:16:37.533Z,4.70
2019-02-26T02:19:04.884Z,4.70
2019-02-26T02:21:33.797Z,4.70
2019-02-26T02:24:01.018Z,4.80
2019-02-26T02:26:28.251Z,4.80
2019-02-26T02:28:55.339Z,4.70
2019-02-26T02:31:24.555Z,4.70
2019-02-26T02:33:52.016Z,4.70
2019-02-26T02:36:22.504Z,4.70
2019-02-26T02:38:48.287Z,4.70
2019-02-26T02:41:15.333Z,4.60
2019-02-26T02:43:42.419Z,4.60
2019-02-26T02:46:10.078Z,4.60
2019-02-26T02:48:37.447Z,4.60
2019-02-26T02:51:05.471Z,4.70
2019-02-26T02:53:33.480Z,4.70
2019-02-26T02:56:00.924Z,4.70
2019-02-26T02:58:28.014Z,4.70
2019-02-26T03:00:58.002Z,4.70
2019-02-26T03:03:25.754Z,4.70
2019-02-26T03:05:52.877Z,4.70
2019-02-26T03:08:22.340Z,4.70
2019-02-26T03:10:49.425Z,4.70
2019-02-26T03:13:16.993Z,4.70
2019-02-26T03:15:47.370Z,4.80
2019-02-26T03:18:16.782Z,4.80
2019-02-26T03:20:43.894Z,4.80
2019-02-26T03:23:15.061Z,4.80
2019-02-26T03:25:41.589Z,4.90
2019-02-26T03:28:09.221Z,5.00
2019-02-26T03:30:40.611Z,5.00
2019-02-26T03:33:06.932Z,5.00
2019-02-26T03:35:34.337Z,5.00
2019-02-26T03:38:03.481Z,4.90
2019-02-26T03:40:32.952Z,5.00
2019-02-26T03:43:01.336Z,5.00
2019-02-26T03:45:28.899Z,5.00
2019-02-26T03:47:58.020Z,5.00
2019-02-26T03:50:27.100Z,5.00
2019-02-26T03:52:54.081Z,5.00
2019-02-26T03:55:21.247Z,5.00
2019-02-26T03:57:52.879Z,5.00
2019-02-26T04:00:19.984Z,5.00
2019-02-26T04:02:49.049Z,5.00
2019-02-26T04:05:16.520Z,5.00
2019-02-26T04:07:43.714Z,5.00
2019-02-26T04:10:11.096Z,5.00
2019-02-26T04:12:41.869Z,4.90
2019-02-26T04:15:10.147Z,4.90
2019-02-26T04:17:39.503Z,4.90
2019-02-26T04:20:07.209Z,4.90
2019-02-26T04:22:35.302Z,5.00
2019-02-26T04:25:18.542Z,5.00
2019-02-26T04:28:10.880Z,5.00
2019-02-26T04:31:26.602Z,5.00
2019-02-26T04:34:48.498Z,5.00
2019-02-26T04:37:38.484Z,5.00
2019-02-26T04:40:17.490Z,5.00
2019-02-26T04:43:31.319Z,5.00
2019-02-26T04:46:39.541Z,5.00
2019-02-26T04:49:07.275Z,5.00
2019-02-26T04:51:36.429Z,4.90
2019-02-26T04:54:03.722Z,5.00
2019-02-26T04:56:35.722Z,5.00
2019-02-26T04:59:02.933Z,4.90
2019-02-26T05:01:29.753Z,4.90
2019-02-26T05:03:56.953Z,4.90
2019-02-26T05:06:25.289Z,4.90
2019-02-26T05:08:52.263Z,4.90
2019-02-26T05:11:31.696Z,4.90
2019-02-26T05:13:48.610Z,5.00
2019-02-26T05:16:16.028Z,5.00
2019-02-26T05:18:46.245Z,5.00
2019-02-26T05:21:13.086Z,5.00
2019-02-26T05:23:40.191Z,5.00
2019-02-26T05:26:08.239Z,5.00
2019-02-26T05:28:37.921Z,5.00
2019-02-26T05:31:06.579Z,4.90
2019-02-26T05:33:34.704Z,4.90
2019-02-26T05:36:03.536Z,4.90
2019-02-26T05:38:32.986Z,4.80
2019-02-26T05:41:01.704Z,4.80
2019-02-26T05:43:30.655Z,4.80
2019-02-26T05:46:00.730Z,4.70
2019-02-26T05:48:27.631Z,4.60
2019-02-26T05:50:54.783Z,4.50
2019-02-26T05:53:21.869Z,4.50
2019-02-26T05:55:51.239Z,4.50
2019-02-26T05:58:19.371Z,4.50
2019-02-26T06:00:47.456Z,4.50
2019-02-26T06:03:16.274Z,4.50
2019-02-26T06:05:45.839Z,4.50
2019-02-26T06:08:12.406Z,4.50
2019-02-26T06:10:40.360Z,4.40
2019-02-26T06:13:09.950Z,4.40
2019-02-26T06:15:36.742Z,4.40
2019-02-26T06:18:04.188Z,4.60
2019-02-26T06:20:33.978Z,4.60
2019-02-26T06:23:00.663Z,4.60
2019-02-26T06:25:27.721Z,4.60
2019-02-26T06:27:55.962Z,4.40
2019-02-26T06:30:23.150Z,4.40
2019-02-26T06:32:50.253Z,4.30
2019-02-26T06:35:19.411Z,4.30
2019-02-26T06:37:46.484Z,4.20
2019-02-26T06:40:13.967Z,4.20
2019-02-26T06:42:41.190Z,4.10
2019-02-26T06:45:10.976Z,4.10
2019-02-26T06:47:38.794Z,4.10
2019-02-26T06:50:08.166Z,4.10
2019-02-26T06:52:38.210Z,4.20
2019-02-26T06:55:09.726Z,4.20
2019-02-26T06:57:38.823Z,4.10
2019-02-26T07:00:08.978Z,4.20
2019-02-26T07:02:35.978Z,4.20
2019-02-26T07:05:03.911Z,4.20
2019-02-26T07:07:31.161Z,4.20
2019-02-26T07:09:58.339Z,4.20
2019-02-26T07:12:26.475Z,4.30
2019-02-26T07:14:55.575Z,4.40
2019-02-26T07:17:23.219Z,4.40
2019-02-26T07:19:51.272Z,4.50
2019-02-26T07:22:21.922Z,4.50
2019-02-26T07:24:51.423Z,4.60
2019-02-26T07:27:18.164Z,4.60
2019-02-26T07:29:47.436Z,4.60
2019-02-26T07:32:14.771Z,4.60
2019-02-26T07:34:45.260Z,4.70
2019-02-26T07:37:13.548Z,4.70
2019-02-26T07:39:41.984Z,4.70
2019-02-26T07:42:11.597Z,4.80
2019-02-26T07:44:38.926Z,4.80
2019-02-26T07:47:08.694Z,4.90
2019-02-26T07:49:35.370Z,5.00
2019-02-26T07:52:05.486Z,5.10
2019-02-26T07:54:31.711Z,5.10
2019-02-26T07:57:02.090Z,5.10
2019-02-26T07:59:32.021Z,5.20
2019-02-26T08:01:57.052Z,5.20
2019-02-26T08:04:24.438Z,5.30
2019-02-26T08:06:52.375Z,5.40
2019-02-26T08:09:23.174Z,5.50
2019-02-26T08:11:50.169Z,5.60
2019-02-26T08:14:18.495Z,5.60
2019-02-26T08:16:49.230Z,5.60
2019-02-26T08:19:15.803Z,5.70
2019-02-26T08:21:42.894Z,5.80
2019-02-26T08:24:12.019Z,5.80
2019-02-26T08:26:40.482Z,5.90
2019-02-26T08:29:09.830Z,5.90
2019-02-26T08:31:37.707Z,6.10
2019-02-26T08:34:04.856Z,6.10
2019-02-26T08:36:31.912Z,6.20
2019-02-26T08:38:59.162Z,6.20
2019-02-26T08:41:26.246Z,6.30
2019-02-26T08:43:54.569Z,6.40
2019-02-26T08:46:22.290Z,6.40
2019-02-26T08:48:50.827Z,6.50
2019-02-26T08:51:19.100Z,6.50
2019-02-26T08:53:49.497Z,6.60
2019-02-26T08:56:18.870Z,6.70
2019-02-26T08:58:46.110Z,6.70
2019-02-26T09:01:13.241Z,6.70
2019-02-26T09:03:41.049Z,6.80
2019-02-26T09:06:13.269Z,6.90
2019-02-26T09:08:38.591Z,6.90
2019-02-26T09:11:10.867Z,7.00
2019-02-26T09:13:41.190Z,7.10
2019-02-26T09:16:09.053Z,7.10
2019-02-26T09:18:38.150Z,7.20
2019-02-26T09:21:07.147Z,7.20
2019-02-26T09:23:34.391Z,7.30
2019-02-26T09:26:02.563Z,7.30
2019-02-26T09:28:32.113Z,7.40
2019-02-26T09:31:01.852Z,7.40
2019-02-26T09:33:32.838Z,7.50
2019-02-26T09:35:57.694Z,7.50
2019-02-26T09:38:25.795Z,7.50
2019-02-26T09:40:54.608Z,7.60
2019-02-26T09:43:23.998Z,7.70
2019-02-26T09:45:52.391Z,7.70
2019-02-26T09:48:21.970Z,7.80
2019-02-26T09:50:49.025Z,7.80
2019-02-26T09:53:16.008Z,7.90
2019-02-26T09:55:43.047Z,8.00
2019-02-26T09:58:11.038Z,8.00
2019-02-26T10:00:38.134Z,8.10
2019-02-26T10:03:07.995Z,8.10
2019-02-26T10:05:34.500Z,8.20
2019-02-26T10:08:03.442Z,8.20
2019-02-26T10:10:33.505Z,8.30
2019-02-26T10:13:02.126Z,8.40
2019-02-26T10:15:28.654Z,8.40
2019-02-26T10:17:58.648Z,8.40
2019-02-26T10:20:28.311Z,8.40
2019-02-26T10:22:57.158Z,8.50
2019-02-26T10:25:23.935Z,8.60
2019-02-26T10:27:52.297Z,8.70
2019-02-26T10:30:19.814Z,8.70
2019-02-26T10:32:47.125Z,8.80
2019-02-26T10:35:18.509Z,8.90
2019-02-26T10:37:51.415Z,9.00
2019-02-26T10:40:19.680Z,9.10
2019-02-26T10:42:47.034Z,9.20
2019-02-26T10:45:15.886Z,9.20
2019-02-26T10:47:43.506Z,9.30
2019-02-26T10:50:16.190Z,9.30
2019-02-26T10:52:42.404Z,9.30
2019-02-26T10:55:12.749Z,9.40
2019-02-26T10:57:39.508Z,9.40
2019-02-26T11:00:11.582Z,9.50
2019-02-26T11:02:43.215Z,9.60
2019-02-26T11:05:11.377Z,9.70
2019-02-26T11:07:40.055Z,9.70
2019-02-26T11:10:07.481Z,9.70
2019-02-26T11:12:34.756Z,9.80
2019-02-26T11:15:04.357Z,9.80
2019-02-26T11:17:32.625Z,9.90
2019-02-26T11:20:01.291Z,9.90
2019-02-26T11:22:28.546Z,10.00
2019-02-26T11:24:56.107Z,10.10
2019-02-26T11:27:24.479Z,10.20
2019-02-26T11:29:52.043Z,10.20
2019-02-26T11:32:20.347Z,10.30
2019-02-26T11:34:47.705Z,10.40
2019-02-26T11:37:15.304Z,10.50
2019-02-26T11:39:42.387Z,10.60
2019-02-26T11:42:10.505Z,10.70
2019-02-26T11:44:37.645Z,10.90
2019-02-26T11:47:04.643Z,10.90
2019-02-26T11:49:31.757Z,11.10
2019-02-26T11:51:58.966Z,11.20
2019-02-26T11:54:26.199Z,11.30
2019-02-26T11:56:53.419Z,11.30
2019-02-26T11:59:20.810Z,11.40
2019-02-26T12:01:48.375Z,11.50
2019-02-26T12:04:17.049Z,11.60
2019-02-26T12:06:44.256Z,11.70
2019-02-26T12:09:13.657Z,11.70
2019-02-26T12:11:40.233Z,11.70
2019-02-26T12:14:08.196Z,11.80
2019-02-26T12:16:36.081Z,11.80
2019-02-26T12:19:05.461Z,11.80
2019-02-26T12:21:34.502Z,11.90
2019-02-26T12:24:03.434Z,11.80
2019-02-26T12:26:32.064Z,11.90
2019-02-26T12:29:00.083Z,11.90
2019-02-26T12:31:31.395Z,12.00
2019-02-26T12:33:57.522Z,12.10
2019-02-26T12:36:26.494Z,12.10
2019-02-26T12:38:54.259Z,12.20
2019-02-26T12:41:22.699Z,12.20
2019-02-26T12:43:49.666Z,12.30
2019-02-26T12:46:16.728Z,12.30
2019-02-26T12:48:46.497Z,12.20
2019-02-26T12:51:12.906Z,12.30
2019-02-26T12:56:15.442Z,12.50
2019-02-26T12:58:45.131Z,12.40
2019-02-26T13:01:12.071Z,12.50
2019-02-26T13:03:42.539Z,12.60
2019-02-26T13:06:12.012Z,12.60
2019-02-26T13:08:39.915Z,12.70
2019-02-26T13:11:07.598Z,12.80
2019-02-26T13:13:34.694Z,12.80
2019-02-26T13:16:01.845Z,12.90
2019-02-26T13:18:28.939Z,12.90
2019-02-26T13:20:59.517Z,12.90
2019-02-26T13:23:25.245Z,13.00
2019-02-26T13:25:52.766Z,13.00
2019-02-26T13:28:19.979Z,13.00
2019-02-26T13:30:47.084Z,13.00
2019-02-26T13:33:17.815Z,13.00
2019-02-26T13:35:46.717Z,13.10
2019-02-26T13:38:12.339Z,13.10
2019-02-26T13:40:39.293Z,13.00
2019-02-26T13:43:07.527Z,13.10
2019-02-26T13:45:34.732Z,13.10
2019-02-26T13:48:02.283Z,13.10
2019-02-26T13:50:29.727Z,13.20
2019-02-26T13:52:57.196Z,13.20
2019-02-26T13:55:24.806Z,13.30
2019-02-26T13:57:51.941Z,13.30
2019-02-26T14:00:25.983Z,13.30
2019-02-26T14:02:48.227Z,13.40
2019-02-26T14:05:15.240Z,13.30
2019-02-26T14:07:42.845Z,13.40
2019-02-26T14:10:11.839Z,13.40
2019-02-26T14:12:39.111Z,13.40
2019-02-26T14:15:06.932Z,13.40
2019-02-26T14:17:34.121Z,13.30
2019-02-26T14:20:01.551Z,13.30
2019-02-26T14:22:30.199Z,13.20
2019-02-26T14:24:57.302Z,13.20
2019-02-26T14:27:24.699Z,13.30
2019-02-26T14:29:51.686Z,13.30
2019-02-26T14:32:18.982Z,13.30
2019-02-26T14:34:45.987Z,13.40
2019-02-26T14:37:12.988Z,13.50
2019-02-26T14:39:40.021Z,13.60
2019-02-26T14:42:07.133Z,13.50
2019-02-26T14:44:34.213Z,13.50
2019-02-26T14:47:02.193Z,13.50
2019-02-26T14:49:29.638Z,13.60
2019-02-26T14:51:56.950Z,13.60
2019-02-26T14:54:23.967Z,13.60
2019-02-26T14:56:51.576Z,13.60
2019-02-26T14:59:19.107Z,13.50
2019-02-26T15:01:46.218Z,13.50
2019-02-26T15:04:13.427Z,13.50
2019-02-26T15:06:40.488Z,13.50
2019-02-26T15:09:07.672Z,13.50
2019-02-26T15:11:35.567Z,13.40
2019-02-26T15:14:05.264Z,13.40
2019-02-26T15:16:32.378Z,13.30
2019-02-26T15:18:59.687Z,13.30
2019-02-26T15:21:27.974Z,13.20
2019-02-26T15:23:55.739Z,13.30
2019-02-26T15:26:23.179Z,13.20
2019-02-26T15:28:50.454Z,13.20
2019-02-26T15:31:17.572Z,13.20
2019-02-26T15:33:44.643Z,13.20
2019-02-26T15:36:11.737Z,13.10
2019-02-26T15:38:39.332Z,13.10
2019-02-26T15:41:06.651Z,13.00
2019-02-26T15:43:33.760Z,13.00
2019-02-26T15:46:01.076Z,13.00
2019-02-26T15:48:28.432Z,13.00
2019-02-26T15:50:55.763Z,12.90
2019-02-26T15:53:24.783Z,12.90
2019-02-26T15:55:52.356Z,12.80
2019-02-26T15:58:19.767Z,12.90
2019-02-26T16:00:46.846Z,12.80
2019-02-26T16:03:13.959Z,12.80
2019-02-26T16:05:42.189Z,12.80
2019-02-26T16:08:09.327Z,12.80
2019-02-26T16:10:36.447Z,12.70
2019-02-26T16:13:03.976Z,12.70
2019-02-26T16:15:31.839Z,12.60
2019-02-26T16:17:59.060Z,12.60
2019-02-26T16:20:29.350Z,12.50
2019-02-26T16:22:57.443Z,12.40
2019-02-26T16:25:24.672Z,12.40
2019-02-26T16:27:53.780Z,12.40
2019-02-26T16:30:20.790Z,12.30
2019-02-26T16:32:48.941Z,12.30
2019-02-26T16:35:16.319Z,12.20
2019-02-26T16:37:43.651Z,12.20
2019-02-26T16:40:10.907Z,12.10
2019-02-26T16:42:38.650Z,12.00
2019-02-26T16:45:09.217Z,11.90
2019-02-26T16:47:36.500Z,11.80
2019-02-26T16:50:12.642Z,11.80
2019-02-26T16:52:34.040Z,11.70
2019-02-26T16:55:01.236Z,11.60
2019-02-26T16:57:28.969Z,11.50
2019-02-26T16:59:56.142Z,11.40
2019-02-26T17:02:27.215Z,11.40
2019-02-26T17:04:52.267Z,11.40
2019-02-26T17:07:19.590Z,11.30
2019-02-26T17:09:47.935Z,11.30
2019-02-26T17:12:14.915Z,11.20
2019-02-26T17:14:43.655Z,11.20
2019-02-26T17:17:10.739Z,11.10
2019-02-26T17:19:38.110Z,11.00
2019-02-26T17:22:05.228Z,10.90
2019-02-26T17:24:32.542Z,10.90
2019-02-26T17:26:59.856Z,10.80
2019-02-26T17:29:27.591Z,10.70
2019-02-26T17:31:54.694Z,10.60
2019-02-26T17:34:23.456Z,10.60
2019-02-26T17:36:52.811Z,10.50
2019-02-26T17:39:20.283Z,10.50
2019-02-26T17:41:47.771Z,10.40
2019-02-26T17:44:15.242Z,10.40
2019-02-26T17:46:42.585Z,10.40
2019-02-26T17:49:10.131Z,10.30
2019-02-26T17:51:37.138Z,10.30
2019-02-26T17:54:04.653Z,10.20
2019-02-26T17:56:32.029Z,10.30
2019-02-26T17:58:59.203Z,10.20
2019-02-26T18:01:26.606Z,10.20
2019-02-26T18:03:53.951Z,10.10
2019-02-26T18:06:21.057Z,10.10
2019-02-26T18:08:48.864Z,10.10
2019-02-26T18:11:15.922Z,10.00
2019-02-26T18:13:42.919Z,9.90
2019-02-26T18:16:10.221Z,9.90
2019-02-26T18:18:37.267Z,9.90
2019-02-26T18:21:05.959Z,9.80
2019-02-26T18:23:37.452Z,9.70
2019-02-26T18:26:02.193Z,9.60
2019-02-26T18:28:29.573Z,9.50
2019-02-26T18:30:56.692Z,9.50
2019-02-26T18:33:23.878Z,9.40
2019-02-26T18:35:51.084Z,9.50
2019-02-26T18:38:18.258Z,9.50
2019-02-26T18:40:45.324Z,9.50
2019-02-26T18:43:14.346Z,9.40
2019-02-26T18:45:41.347Z,9.40
2019-02-26T18:48:08.369Z,9.40
2019-02-26T18:50:35.675Z,9.30
2019-02-26T18:53:03.402Z,9.20
2019-02-26T18:55:32.540Z,9.20
2019-02-26T18:57:59.394Z,9.10
2019-02-26T19:00:26.671Z,9.10
2019-02-26T19:02:54.082Z,9.10
2019-02-26T19:05:23.546Z,9.10
2019-02-26T19:07:50.568Z,9.10
2019-02-26T19:10:20.771Z,9.10
2019-02-26T19:12:47.470Z,9.10
2019-02-26T19:15:15.496Z,9.00
2019-02-26T19:17:44.727Z,9.00
2019-02-26T19:20:12.714Z,9.00
2019-02-26T19:22:41.195Z,8.90
2019-02-26T19:25:09.237Z,8.90
2019-02-26T19:27:37.200Z,8.90
2019-02-26T19:30:06.124Z,8.80
2019-02-26T19:32:35.299Z,8.80
2019-02-26T19:35:11.797Z,8.80
2019-02-26T19:37:31.933Z,8.70
2019-02-26T19:39:58.954Z,8.80
2019-02-26T19:42:25.988Z,8.70
2019-02-26T19:44:53.767Z,8.70
2019-02-26T19:47:22.734Z,8.60
2019-02-26T19:49:50.049Z,8.60
2019-02-26T19:52:17.080Z,8.50
2019-02-26T19:54:44.335Z,8.50
2019-02-26T19:57:12.376Z,8.40
2019-02-26T19:59:39.626Z,8.30
2019-02-26T20:02:06.863Z,8.20
2019-02-26T20:04:38.155Z,8.10
2019-02-26T20:07:04.775Z,8.00
2019-02-26T20:09:31.811Z,8.00
2019-02-26T20:11:59.158Z,7.90
2019-02-26T20:14:26.349Z,8.00
2019-02-26T20:16:53.519Z,8.00
2019-02-26T20:19:20.527Z,7.90
2019-02-26T20:21:51.502Z,8.00
2019-02-26T20:24:17.128Z,8.00
2019-02-26T20:26:44.479Z,8.00
2019-02-26T20:29:12.038Z,8.00
2019-02-26T20:31:39.636Z,8.00
2019-02-26T20:34:07.315Z,8.00
2019-02-26T20:36:35.719Z,7.90
2019-02-26T20:39:07.677Z,7.90
2019-02-26T20:41:34.797Z,7.90
2019-02-26T20:44:01.796Z,7.90
2019-02-26T20:46:28.879Z,8.00
2019-02-26T20:48:55.903Z,8.10
2019-02-26T20:51:26.842Z,8.10
2019-02-26T20:53:51.883Z,8.10
2019-02-26T20:56:19.095Z,8.10
2019-02-26T20:58:46.195Z,8.00
2019-02-26T21:01:13.555Z,7.90
2019-02-26T21:03:40.598Z,7.90
2019-02-26T21:06:07.580Z,7.90
2019-02-26T21:08:35.253Z,7.90
2019-02-26T21:11:03.419Z,7.90
2019-02-26T21:13:34.675Z,7.90
2019-02-26T21:16:07.508Z,7.80
2019-02-26T21:18:35.052Z,7.70
2019-02-26T21:21:20.918Z,7.60
2019-02-26T21:23:48.114Z,7.50
2019-02-26T21:26:19.261Z,7.40
2019-02-26T21:28:44.886Z,7.30
2019-02-26T21:31:12.221Z,7.20
2019-02-26T21:33:39.573Z,7.20
2019-02-26T21:36:07.555Z,7.10
2019-02-26T21:38:38.547Z,7.00
2019-02-26T21:41:03.575Z,7.00
2019-02-26T21:43:34.597Z,6.90
2019-02-26T21:45:59.765Z,6.90
2019-02-26T21:48:27.328Z,6.80
2019-02-26T21:50:54.876Z,6.80
2019-02-26T21:53:22.607Z,6.80
2019-02-26T21:55:49.960Z,6.80
2019-02-26T21:58:21.619Z,6.90
2019-02-26T22:00:50.119Z,7.00
2019-02-26T22:03:17.117Z,7.10
2019-02-26T22:05:44.152Z,7.10
2019-02-26T22:08:11.186Z,7.20
2019-02-26T22:10:40.208Z,7.30
2019-02-26T22:13:07.223Z,7.30
2019-02-26T22:15:36.098Z,7.30
2019-02-26T22:18:03.658Z,7.30
2019-02-26T22:20:36.239Z,7.30
2019-02-26T22:23:00.996Z,7.40
2019-02-26T22:25:29.324Z,7.40
2019-02-26T22:27:56.629Z,7.50
2019-02-26T22:30:23.935Z,7.60
2019-02-26T22:32:51.269Z,7.60
2019-02-26T22:35:18.750Z,7.70
2019-02-26T22:37:46.309Z,7.70
2019-02-26T22:40:13.522Z,7.60
2019-02-26T22:42:41.357Z,7.50
2019-02-26T22:45:11.303Z,7.40
2019-02-26T22:47:41.531Z,7.30
2019-02-26T22:50:10.758Z,7.20
2019-02-26T22:52:37.797Z,7.20
2019-02-26T22:55:05.079Z,7.20
2019-02-26T22:57:33.839Z,7.20
2019-02-26T23:00:00.844Z,7.20
2019-02-26T23:02:29.171Z,7.20
2019-02-26T23:04:56.285Z,7.10
2019-02-26T23:07:23.883Z,7.10
2019-02-26T23:09:52.502Z,7.10
2019-02-26T23:12:21.502Z,7.10
2019-02-26T23:14:48.764Z,7.10
2019-02-26T23:17:16.425Z,7.10
2019-02-26T23:19:45.271Z,7.10
2019-02-26T23:22:12.372Z,7.10
2019-02-26T23:24:40.175Z,7.10
2019-02-26T23:27:08.042Z,7.10
2019-02-26T23:29:39.022Z,7.10
2019-02-26T23:32:07.009Z,7.10
2019-02-26T23:34:34.586Z,7.00
2019-02-26T23:37:01.874Z,7.00
2019-02-26T23:39:29.266Z,6.90
2019-02-26T23:41:57.295Z,6.90
2019-02-26T23:44:24.522Z,6.90
2019-02-26T23:46:51.739Z,6.80
2019-02-26T23:49:19.032Z,6.80
2019-02-26T23:51:46.137Z,6.80
2019-02-26T23:54:13.399Z,6.80
2019-02-26T23:56:40.534Z,6.80
2019-02-26T23:59:08.666Z,6.80
